x

Portland 12 Nm Southeast Of Portland,me (44007) Wave Buoy

3:50pm - Sat 17th Feb 2018 All times are EST. -5 hours from GMT.

  • Sig Wave height 1.6ft
  • Swell Direction
  • Peak Period 9s
  • Average Period 3s
  • Wind
    13mph, 18mph gusts
  • Sea Temp 40°f
  • Air Temp 30°f
  • Sea Pressure 1027.5mb
  • Portland 12 Nm Southeast Of Portland,me
  • Portland 12 Nm Southeast Of Portland,me

More Historic Weather Station data

Upgrade to MSW Pro to gain access to the past 30 days of data for over 8000 Wavebouys and Weather Stations around the globe.

Join

Comparision Forecast

View Surf forecast
   
Sat 02/17 3:50pm 1.6ft 9s 3s 13 18 mph 1027.5mb 40f 30f
2:50pm 1ft 9s 4s 16 18 mph 1027.9mb 40f 29f
1:50pm 1ft 9s 6s 11 16 mph 1027.5mb 40f 28f
12:50pm 1ft 10s 5s 9 11 mph 1028mb 40f 27f
11:50am 1ft 11s 5s 2 2 mph 1028.9mb 40f 28f
10:50am 1.3ft 9s 4s 4 11 mph 1029.5mb 40f 26f
9:50am 1.3ft 10s 4s 9 13 mph 1029.8mb 39f 25f
8:50am 1.3ft 10s 4s 11 16 mph 1030.2mb 39f 25f
7:50am 1.6ft 10s 4s 13 16 mph 1029.5mb 39f 25f
6:50am 1.6ft 8s 4s 16 18 mph 1028.2mb 39f 25f
5:50am 1.6ft 10s 3s 16 20 mph 1027mb 39f 26f
4:50am 1.6ft 10s 4s 13 18 mph 1025.2mb 39f 27f
3:50am 1.6ft 3s 3s 16 18 mph 1023.4mb 39f 28f
2:50am 2ft 3s 3s 20 25 mph 1021.4mb 39f 29f
1:50am 2.5ft 3s 3s 20 25 mph 1019.8mb 39f 29f
12:50am 2.5ft 3s 3s 22 25 mph 1018.3mb 39f 30f
Fri 02/16 11:50pm 2.5ft 4s 4s 22 27 mph 1016.8mb 39f 31f
10:50pm 2.5ft 4s 4s 22 27 mph 1015.1mb 39f 32f
9:50pm 3ft 4s 4s 27 31 mph 1012.9mb 39f 33f
8:50pm 3.5ft 4s 4s 27 34 mph 1010.5mb 39f 36f
7:50pm 3ft 9s 4s 27 36 mph 1007.6mb 39f 39f
6:50pm 2.5ft 9s 5s 22 27 mph 1005.4mb 39f 42f
5:50pm 2.5ft 9s 6s 11 13 mph 1003.5mb 39f 42f
4:50pm 2.5ft 10s 6s 4 7 mph 1002mb 39f 43f
3:50pm 2.5ft 10s 6s 7 9 mph 1000.7mb 39f 43f
2:50pm 2.5ft 10s 6s  -  2 mph 999.6mb 39f 43f
1:50pm 2.5ft 10s 6s 4 4 mph 999.7mb 39f 43f
12:50pm 2.5ft 7s 6s 7 9 mph 999.1mb 39f 41f
11:50am 2.5ft 9s 6s 7 9 mph 999.1mb 39f 40f
10:50am 3ft 6s 6s 7 7 mph 999mb 39f 40f
9:50am 3ft 8s 5s 2 4 mph 999.1mb 39f 40f
8:50am 3ft 5s 5s 7 9 mph 1000.1mb 39f 40f
7:50am 3ft 7s 5s 9 9 mph 999.3mb 39f 41f
6:50am 2.5ft 10s 5s 9 11 mph 999mb 39f 42f
5:50am 3ft 10s 5s 9 11 mph 999.9mb 39f 41f
4:50am 2.5ft 10s 5s 13 13 mph 999.9mb 39f 41f
3:50am 2.5ft 11s 5s 4 7 mph 1000.4mb 39f 41f
2:50am 2.5ft 10s 5s 7 9 mph 1000.2mb 39f 41f
1:50am 3ft 5s 5s 7 7 mph 1001mb 39f 42f
12:50am 3.5ft 5s 5s 11 13 mph 1000.8mb 39f 42f
Thu 02/15 11:50pm 3.5ft 8s 5s 16 18 mph 1001.3mb 39f 44f
10:50pm 2.5ft 5s  -  16 18 mph 1001.7mb 39f 44f
9:50pm 3ft 4s  -  18 20 mph 1002.1mb 40f 43f
8:50pm 3ft 4s 4s 13 16 mph 1002.4mb 40f 42f
7:50pm 3ft 10s 4s 13 16 mph 1002.8mb 40f 43f
6:50pm 3.5ft 9s 4s 13 18 mph 1002.8mb 40f 42f
5:50pm 2.5ft 9s 4s 16 18 mph 1003.2mb 40f 42f
4:50pm 2.5ft 9s 4s 11 13 mph 1003.8mb 40f 41f
3:50pm 2.5ft 10s 5s 13 16 mph 1003.7mb 40f 41f
2:50pm 2.5ft 10s 5s 11 13 mph 1004.9mb 40f 40f
1:50pm 2.5ft 10s 5s 9 9 mph 1006.2mb 40f 40f
12:50pm 2.5ft 6s 5s 9 11 mph 1007.1mb 40f 40f
11:50am 2.5ft 6s 5s 7 9 mph 1008.2mb 40f 40f
10:50am 2.5ft 7s 5s 7 9 mph 1009.8mb 40f 40f
9:50am 2.5ft 5s 5s 7 9 mph 1011.2mb 40f 39f
8:50am 2.5ft 5s 5s 4 7 mph 1011.5mb 39f 39f
7:50am 2.5ft 5s 5s 4 4 mph 1012.4mb 39f 39f
6:50am 2.5ft 5s 5s  -  2 mph 1012.5mb 39f 38f
5:50am 2.5ft 5s 4s 9 11 mph 1012.8mb 39f 38f
4:50am 2.5ft 5s 4s 11 13 mph 1012.7mb 39f 39f
3:50am 2.5ft 9s 5s 9 11 mph 1013mb 40f 38f
2:50am 2.5ft 9s 4s 16 18 mph 1013.3mb 40f 39f
1:50am 2.5ft 5s 4s 13 16 mph 1013.5mb 40f 40f
12:50am 2.5ft 5s 4s 18 20 mph 1013.3mb 40f 40f
Wed 02/14 11:50pm 2.5ft 10s 4s 18 22 mph 1013.9mb 40f 40f
10:50pm 2ft 5s 4s 18 20 mph 1014.1mb 39f 40f
9:50pm 2.5ft 5s 4s 16 20 mph 1014.7mb 39f 41f
8:50pm 2.5ft 5s 4s 13 16 mph 1015.1mb 39f 41f
7:50pm 2.5ft 5s 4s 13 16 mph 1015.4mb 39f 41f
6:50pm 3ft 5s 5s 11 13 mph 1015.9mb 39f 41f
5:50pm 3ft 5s 4s 11 13 mph 1016.3mb 39f 41f
4:50pm 3.5ft 6s 4s 11 16 mph 1016.5mb 39f 41f
3:50pm 3.5ft 6s 5s 18 20 mph 1016.8mb 39f 40f
2:50pm 4.5ft 6s 5s 16 18 mph 1017.6mb 39f 40f
1:50pm 4ft 6s 5s 18 20 mph 1018.1mb 39f 38f
12:50pm 4.5ft 6s 5s 16 20 mph 1019.8mb 39f 37f
11:50am 4.5ft 6s 5s 18 22 mph 1021.3mb 39f 36f
10:50am 4.5ft 6s 4s 20 25 mph 1023.4mb 39f 35f
9:50am 4.5ft 6s 4s 25 31 mph 1023.9mb 39f 35f
8:50am 5.5ft 6s 5s 27 31 mph 1024.8mb 39f 35f
7:50am 5ft 6s 5s 29 38 mph 1025.3mb 39f 35f
6:50am 4.5ft 6s 4s 27 31 mph 1026.4mb 38f 34f
5:50am 5ft 6s 5s 25 29 mph 1027.2mb 39f 33f
3:50am 5.5ft 6s 5s 27 34 mph 1028.9mb 39f 32f
2:50am 6ft 6s 5s 25 29 mph 1030.7mb 39f 32f
1:50am 5.5ft 6s 5s 25 31 mph 1032.1mb 39f 32f
12:50am 5ft 6s 5s 27 31 mph 1032.9mb 39f 33f
Tue 02/13 11:50pm 4.5ft 5s 4s 27 31 mph 1033.8mb 39f 33f
10:50pm 3.5ft 5s 4s 27 31 mph 1034.8mb 39f 32f
9:50pm 3.5ft 4s 4s 22 27 mph 1036.3mb 39f 32f